Time;durP1;ratioP1;P1;durP2;ratioP2;P2;SDS_P1;SDS_P2;PMS_P1;PMS_P2;Temp;Humidity;BMP_temperature;BMP_pressure;BME280_temperature;BME280_humidity;BME280_pressure;Samples;Min_cycle;Max_cycle;Signal;HPM_P1;HPM_P2
2021/12/30 00:01:18;;;;;;;0.00;0.00;;;14.80;99.90;;;;;;6248581;23;20010;-70
2021/12/30 00:03:46;;;;;;;0.00;0.00;;;14.80;99.90;;;;;;6250330;22;20079;-70
2021/12/30 00:06:12;;;;;;;0.00;0.00;;;14.80;99.90;;;;;;6247037;22;20150;-70
2021/12/30 00:08:39;;;;;;;0.00;0.00;;;14.80;99.90;;;;;;6248958;22;20378;-71
2021/12/30 00:11:06;;;;;;;0.00;0.00;;;14.80;99.90;;;;;;6247622;23;20000;-70
2021/12/30 00:13:32;;;;;;;0.00;0.00;;;14.80;99.90;;;;;;6250650;22;20046;-69
2021/12/30 00:15:58;;;;;;;;;;;14.80;99.90;;;;;;6255437;22;20520;-69
2021/12/30 00:18:25;;;;;;;0.00;0.00;;;14.80;99.90;;;;;;6253459;22;19919;-70
2021/12/30 00:20:51;;;;;;;0.00;0.00;;;14.80;99.90;;;;;;6255056;22;20023;-69
2021/12/30 00:23:17;;;;;;;0.00;0.00;;;14.80;99.90;;;;;;6255555;23;19997;-73
2021/12/30 00:25:42;;;;;;;0.00;0.00;;;14.80;99.90;;;;;;6255313;23;20004;-70
2021/12/30 00:28:21;;;;;;;0.00;0.00;;;14.80;99.90;;;;;;6258004;23;20023;-70
2021/12/30 00:30:48;;;;;;;0.00;0.00;;;14.80;99.90;;;;;;6259474;22;20030;-69
2021/12/30 00:33:14;;;;;;;0.00;0.00;;;14.90;99.90;;;;;;6257550;23;20007;-70
2021/12/30 00:35:40;;;;;;;0.00;0.00;;;14.80;99.90;;;;;;6259568;22;20031;-70
2021/12/30 00:38:07;;;;;;;0.00;0.00;;;14.90;99.90;;;;;;6259994;23;19992;-70
2021/12/30 00:40:34;;;;;;;0.00;0.00;;;14.90;99.90;;;;;;6259790;22;20449;-69
2021/12/30 00:43:00;;;;;;;0.00;0.00;;;14.80;99.90;;;;;;6261130;22;19996;-68
2021/12/30 00:45:27;;;;;;;0.00;0.00;;;14.90;99.90;;;;;;6260079;23;20065;-69
2021/12/30 00:47:53;;;;;;;0.00;0.00;;;14.90;99.90;;;;;;6260007;22;20645;-69
2021/12/30 00:50:19;;;;;;;0.00;0.00;;;14.90;99.90;;;;;;6259915;23;20027;-69
2021/12/30 00:52:45;;;;;;;0.00;0.00;;;14.90;99.90;;;;;;6257709;23;20000;-70
2021/12/30 00:55:11;;;;;;;0.00;0.00;;;14.90;99.90;;;;;;6257584;23;20011;-69
2021/12/30 00:57:37;;;;;;;0.00;0.00;;;15.00;99.90;;;;;;6258975;22;20340;-70
2021/12/30 01:00:05;;;;;;;0.00;0.00;;;14.90;99.90;;;;;;6258224;23;20080;-70
2021/12/30 01:02:31;;;;;;;0.00;0.00;;;14.90;99.90;;;;;;6258524;22;20011;-70
2021/12/30 01:04:56;;;;;;;0.00;0.00;;;14.90;99.90;;;;;;6259122;23;20312;-71
2021/12/30 01:07:22;;;;;;;0.00;0.00;;;14.90;99.90;;;;;;6259535;23;20003;-70
2021/12/30 01:09:48;;;;;;;;;;;14.90;99.90;;;;;;6260983;23;19996;-69
2021/12/30 01:12:15;;;;;;;0.00;0.00;;;14.90;99.90;;;;;;6258297;23;19951;-69
2021/12/30 01:14:46;;;;;;;0.00;0.00;;;15.00;99.90;;;;;;6261610;23;20059;-70
2021/12/30 01:20:04;;;;;;;0.00;0.00;;;14.80;99.90;;;;;;6254703;23;20022;-69
2021/12/30 01:22:29;;;;;;;0.00;0.00;;;14.80;99.90;;;;;;6259591;22;19996;-70
2021/12/30 01:24:55;;;;;;;0.00;0.00;;;14.80;99.90;;;;;;6258239;23;19992;-70
2021/12/30 01:27:21;;;;;;;;;;;14.80;99.90;;;;;;6258553;22;20000;-69
2021/12/30 01:29:48;;;;;;;0.00;0.00;;;14.80;99.90;;;;;;6258441;23;19970;-70
2021/12/30 01:32:14;;;;;;;0.00;0.00;;;14.90;99.90;;;;;;6257250;22;20020;-69
2021/12/30 01:34:40;;;;;;;0.00;0.00;;;14.90;99.90;;;;;;6258528;23;19996;-70
2021/12/30 01:37:06;;;;;;;0.00;0.00;;;14.90;99.90;;;;;;6257976;23;20007;-69
2021/12/30 01:39:33;;;;;;;;;;;14.90;99.90;;;;;;6257358;22;20000;-70
2021/12/30 01:42:00;;;;;;;0.00;0.00;;;14.80;99.90;;;;;;6259236;22;19929;-70
2021/12/30 01:44:28;;;;;;;0.00;0.00;;;14.80;99.90;;;;;;6260874;22;20021;-69
2021/12/30 01:46:54;;;;;;;0.00;0.00;;;14.80;99.90;;;;;;6263370;22;20026;-68
2021/12/30 01:49:21;;;;;;;0.00;0.00;;;14.90;99.90;;;;;;6259338;22;20091;-69
2021/12/30 01:51:48;;;;;;;0.00;0.00;;;14.90;99.90;;;;;;6258341;23;20015;-69
2021/12/30 01:54:14;;;;;;;0.00;0.00;;;14.80;99.90;;;;;;6257855;22;19999;-70
2021/12/30 01:56:41;;;;;;;0.00;0.00;;;14.90;99.90;;;;;;6257859;22;20007;-70
2021/12/30 01:59:08;;;;;;;0.00;0.00;;;14.80;99.90;;;;;;6255465;23;20336;-70
2021/12/30 02:01:34;;;;;;;0.00;0.00;;;14.80;99.90;;;;;;6257563;22;19996;-69
2021/12/30 02:04:00;;;;;;;0.00;0.00;;;14.90;99.90;;;;;;6233708;23;20008;-71
2021/12/30 02:06:26;;;;;;;0.00;0.00;;;14.90;99.90;;;;;;6258037;22;20000;-70
2021/12/30 02:08:53;;;;;;;0.00;0.00;;;14.80;99.90;;;;;;6260250;22;20139;-70
2021/12/30 02:11:19;;;;;;;0.00;0.00;;;14.80;99.90;;;;;;6259757;22;20000;-69
2021/12/30 02:13:47;;;;;;;;;;;14.80;99.90;;;;;;6259922;22;20003;-69
2021/12/30 02:16:15;;;;;;;0.00;0.00;;;14.80;99.90;;;;;;6260139;22;19927;-70
2021/12/30 02:18:41;;;;;;;0.00;0.00;;;14.80;99.90;;;;;;6259176;22;20003;-70
2021/12/30 02:21:07;;;;;;;0.00;0.00;;;14.90;99.90;;;;;;6259727;23;20001;-69
2021/12/30 02:23:35;;;;;;;0.00;0.00;;;14.80;99.90;;;;;;6259569;23;20004;-69
2021/12/30 02:26:08;;;;;;;0.00;0.00;;;14.80;99.90;;;;;;6259122;22;19996;-69
2021/12/30 02:28:36;;;;;;;0.00;0.00;;;14.80;99.90;;;;;;6259285;22;20448;-69
2021/12/30 02:31:13;;;;;;;0.00;0.00;;;14.90;99.90;;;;;;6259482;22;20016;-69
2021/12/30 02:33:39;;;;;;;0.00;0.00;;;14.90;99.90;;;;;;6257942;22;20086;-70
2021/12/30 02:36:05;;;;;;;;;;;15.00;99.90;;;;;;6258952;23;20549;-68
2021/12/30 02:38:31;;;;;;;0.00;0.00;;;14.90;99.90;;;;;;6260488;23;19900;-71
2021/12/30 02:40:58;;;;;;;0.00;0.00;;;14.90;99.90;;;;;;6257762;22;20091;-69
2021/12/30 02:43:27;;;;;;;0.00;0.00;;;14.80;99.90;;;;;;6259558;22;20000;-70
2021/12/30 02:45:54;;;;;;;0.00;0.00;;;14.90;99.90;;;;;;6257991;23;20011;-69
2021/12/30 02:48:23;;;;;;;0.00;0.00;;;15.00;99.90;;;;;;6259977;22;20044;-69
2021/12/30 02:50:52;;;;;;;0.00;0.00;;;14.90;99.90;;;;;;6262928;22;20038;-70
2021/12/30 02:53:19;;;;;;;0.00;0.00;;;15.00;99.90;;;;;;6262645;22;20006;-69
2021/12/30 02:55:45;;;;;;;0.00;0.00;;;15.00;99.90;;;;;;6262904;23;20008;-69
2021/12/30 02:58:12;;;;;;;0.00;0.00;;;15.00;99.90;;;;;;6263703;23;20004;-70
2021/12/30 03:00:39;;;;;;;0.00;0.00;;;15.10;99.90;;;;;;6260346;22;20004;-69
2021/12/30 03:03:05;;;;;;;0.00;0.00;;;15.10;99.90;;;;;;6262928;22;20022;-69
2021/12/30 03:05:31;;;;;;;0.00;0.00;;;15.00;99.90;;;;;;6261605;22;20747;-71
2021/12/30 03:07:57;;;;;;;0.00;0.00;;;15.00;99.90;;;;;;6263130;23;20027;-70
2021/12/30 03:10:27;;;;;;;0.00;0.00;;;15.00;99.90;;;;;;6262868;22;20016;-70
2021/12/30 03:12:57;;;;;;;0.00;0.00;;;14.90;99.90;;;;;;6261333;22;19996;-69
2021/12/30 03:15:24;;;;;;;0.00;0.00;;;15.00;99.90;;;;;;6262699;23;20008;-70
2021/12/30 03:17:50;;;;;;;0.00;0.00;;;14.90;99.90;;;;;;6263750;22;20000;-70
2021/12/30 03:20:17;;;;;;;0.00;0.00;;;14.90;99.90;;;;;;6261858;23;20020;-69
2021/12/30 03:22:44;;;;;;;0.00;0.00;;;15.00;99.90;;;;;;6264773;22;19996;-69
2021/12/30 03:25:13;;;;;;;0.00;0.00;;;15.00;99.90;;;;;;6262540;22;20015;-70
2021/12/30 03:27:40;;;;;;;0.00;0.00;;;14.90;99.90;;;;;;6262689;22;20048;-68
2021/12/30 03:30:08;;;;;;;0.00;0.00;;;15.00;99.90;;;;;;6263757;22;20139;-69
2021/12/30 03:32:34;;;;;;;0.00;0.00;;;15.00;99.90;;;;;;6263563;22;20019;-70
2021/12/30 03:35:00;;;;;;;0.00;0.00;;;15.00;99.90;;;;;;6264990;22;19996;-71
2021/12/30 03:37:26;;;;;;;0.00;0.00;;;15.00;99.90;;;;;;6264473;22;19984;-70
2021/12/30 03:39:52;;;;;;;0.00;0.00;;;15.00;99.90;;;;;;6264008;23;20077;-70
2021/12/30 03:42:17;;;;;;;0.00;0.00;;;14.90;99.90;;;;;;6264896;23;20015;-70
2021/12/30 03:44:44;;;;;;;0.00;0.00;;;14.90;99.90;;;;;;6265604;22;20004;-70
2021/12/30 03:47:15;;;;;;;0.00;0.00;;;14.90;99.90;;;;;;6263240;22;20004;-69
2021/12/30 03:49:45;;;;;;;0.00;0.00;;;14.90;99.90;;;;;;6265562;23;20008;-69
2021/12/30 03:52:15;;;;;;;0.00;0.00;;;15.00;99.90;;;;;;6261903;22;20043;-70
2021/12/30 03:54:42;;;;;;;0.00;0.00;;;14.90;99.90;;;;;;6264879;22;20000;-70
2021/12/30 03:57:08;;;;;;;0.00;0.00;;;14.90;99.90;;;;;;6263966;22;20004;-69
2021/12/30 03:59:34;;;;;;;0.00;0.00;;;15.00;99.90;;;;;;6260735;23;20008;-70
2021/12/30 04:02:00;;;;;;;0.00;0.00;;;15.00;99.90;;;;;;6262837;22;20071;-70
2021/12/30 04:04:26;;;;;;;0.00;0.00;;;14.90;99.90;;;;;;6263271;23;20000;-70
2021/12/30 04:06:52;;;;;;;0.00;0.00;;;14.90;99.90;;;;;;6262089;22;20429;-71
2021/12/30 04:09:18;;;;;;;0.00;0.00;;;14.90;99.90;;;;;;6263851;22;20000;-69
2021/12/30 04:11:44;;;;;;;0.00;0.00;;;14.90;99.90;;;;;;6260993;23;20000;-70
2021/12/30 04:14:10;;;;;;;0.00;0.00;;;14.90;99.90;;;;;;6261592;22;20391;-69
2021/12/30 04:16:35;;;;;;;0.00;0.00;;;14.90;99.90;;;;;;6261612;23;20028;-69
2021/12/30 04:19:04;;;;;;;0.00;0.00;;;15.00;99.90;;;;;;6261040;23;20080;-70
2021/12/30 04:21:30;;;;;;;0.00;0.00;;;14.90;99.90;;;;;;6262675;22;20049;-72
2021/12/30 04:23:55;;;;;;;0.00;0.00;;;14.90;99.90;;;;;;6262144;23;20008;-69
2021/12/30 04:26:21;;;;;;;0.00;0.00;;;14.90;99.90;;;;;;6259847;23;20004;-69
2021/12/30 04:28:47;;;;;;;0.00;0.00;;;14.80;99.90;;;;;;6262279;23;20467;-69
2021/12/30 04:31:13;;;;;;;0.00;0.00;;;14.90;99.90;;;;;;6262907;23;20322;-69
2021/12/30 04:33:39;;;;;;;0.00;0.00;;;14.80;99.90;;;;;;6261079;22;19996;-70
2021/12/30 04:36:06;;;;;;;0.00;0.00;;;14.90;99.90;;;;;;6262075;23;20009;-70
2021/12/30 04:38:32;;;;;;;0.00;0.00;;;14.90;99.90;;;;;;6262317;23;20099;-70
2021/12/30 04:40:58;;;;;;;;;;;14.90;99.90;;;;;;6262833;22;20011;-70
2021/12/30 04:43:24;;;;;;;0.00;0.00;;;14.90;99.90;;;;;;6262835;22;19899;-71
2021/12/30 04:45:50;;;;;;;;;;;14.90;99.90;;;;;;6261259;22;20076;-70
2021/12/30 04:48:17;;;;;;;0.00;0.00;;;14.80;99.90;;;;;;6261317;22;19899;-69
2021/12/30 04:50:45;;;;;;;0.00;0.00;;;14.80;99.90;;;;;;6262566;23;19996;-69
2021/12/30 04:53:11;;;;;;;0.00;0.00;;;14.80;99.90;;;;;;6261978;23;20004;-70
2021/12/30 04:55:37;;;;;;;0.00;0.00;;;14.80;99.90;;;;;;6261719;22;20376;-70
2021/12/30 04:58:03;;;;;;;0.00;0.00;;;14.70;99.90;;;;;;6261731;23;20225;-69
2021/12/30 05:00:29;;;;;;;0.00;0.00;;;14.70;99.90;;;;;;6259068;23;20069;-70
2021/12/30 05:05:29;;;;;;;0.00;0.00;;;14.70;99.90;;;;;;6260615;22;20010;-71
2021/12/30 05:07:55;;;;;;;;;;;14.70;99.90;;;;;;6261975;22;19996;-70
2021/12/30 05:10:21;;;;;;;0.00;0.00;;;14.60;99.90;;;;;;6262156;22;19906;-70
2021/12/30 05:12:46;;;;;;;0.00;0.00;;;14.50;99.90;;;;;;6258791;22;19996;-69
2021/12/30 05:15:13;;;;;;;0.00;0.00;;;14.60;99.90;;;;;;6259594;23;20010;-71
2021/12/30 05:17:40;;;;;;;0.00;0.00;;;14.50;99.90;;;;;;6258360;22;20054;-70
2021/12/30 05:20:06;;;;;;;0.00;0.00;;;14.60;99.90;;;;;;6257586;22;20434;-69
2021/12/30 05:22:32;;;;;;;0.00;0.00;;;14.50;99.90;;;;;;6258125;22;19992;-71
2021/12/30 05:24:58;;;;;;;0.00;0.00;;;14.50;99.90;;;;;;6259335;23;19997;-70
2021/12/30 05:27:23;;;;;;;0.00;0.00;;;14.50;99.90;;;;;;6258231;23;19996;-70
2021/12/30 05:29:49;;;;;;;0.00;0.00;;;14.40;99.90;;;;;;6258109;23;20016;-70
2021/12/30 05:32:15;;;;;;;0.00;0.00;;;14.50;99.90;;;;;;6257705;23;20004;-69
2021/12/30 05:34:40;;;;;;;0.00;0.00;;;14.50;99.90;;;;;;6259827;23;20000;-69
2021/12/30 05:37:06;;;;;;;0.00;0.00;;;14.50;99.90;;;;;;6258439;23;20008;-70
2021/12/30 05:39:35;;;;;;;0.00;0.00;;;14.50;99.90;;;;;;6260162;23;20000;-70
2021/12/30 05:42:01;;;;;;;0.00;0.00;;;14.50;99.90;;;;;;6262067;23;20018;-68
2021/12/30 05:44:27;;;;;;;0.00;0.00;;;14.50;99.90;;;;;;6261039;23;20000;-69
2021/12/30 05:46:53;;;;;;;0.00;0.00;;;14.40;99.90;;;;;;6260083;22;20035;-70
2021/12/30 05:49:18;;;;;;;0.00;0.00;;;14.40;99.90;;;;;;6261772;23;20007;-71
2021/12/30 05:51:44;;;;;;;0.00;0.00;;;14.40;99.90;;;;;;6261546;23;20000;-70
2021/12/30 05:54:10;;;;;;;0.00;0.00;;;14.40;99.90;;;;;;6260746;23;20054;-70
2021/12/30 05:56:35;;;;;;;;;;;14.40;99.90;;;;;;6263557;23;20058;-69
2021/12/30 05:59:01;;;;;;;0.00;0.00;;;14.40;99.90;;;;;;6260183;23;19899;-69
2021/12/30 06:01:27;;;;;;;0.00;0.00;;;14.40;99.90;;;;;;6263571;23;20004;-69
2021/12/30 06:03:52;;;;;;;0.00;0.00;;;14.40;99.90;;;;;;6262281;23;20015;-69
2021/12/30 06:06:18;;;;;;;0.00;0.00;;;14.40;99.90;;;;;;6260256;23;20095;-69
2021/12/30 06:08:44;;;;;;;0.00;0.00;;;14.30;99.90;;;;;;6260677;23;20000;-70
2021/12/30 06:11:09;;;;;;;0.00;0.00;;;14.20;99.90;;;;;;6261776;23;19996;-69
2021/12/30 06:13:35;;;;;;;0.00;0.00;;;14.20;99.90;;;;;;6260157;23;20048;-69
2021/12/30 06:16:01;;;;;;;0.00;0.00;;;14.20;99.90;;;;;;6259590;23;20035;-70
2021/12/30 06:18:26;;;;;;;0.00;0.00;;;14.20;99.90;;;;;;6260128;23;20032;-71
2021/12/30 06:20:52;;;;;;;0.00;0.00;;;14.20;99.90;;;;;;6258164;23;20102;-69
2021/12/30 06:23:18;;;;;;;0.00;0.00;;;14.20;99.90;;;;;;6260148;23;20056;-70
2021/12/30 06:25:44;;;;;;;0.00;0.00;;;14.20;99.90;;;;;;6259817;23;20000;-68
2021/12/30 06:28:09;;;;;;;0.00;0.00;;;14.20;99.90;;;;;;6261281;22;20012;-69
2021/12/30 06:30:35;;;;;;;0.00;0.00;;;14.30;99.90;;;;;;6259482;23;20371;-70
2021/12/30 06:33:01;;;;;;;0.00;0.00;;;14.40;99.90;;;;;;6258774;23;19996;-70
2021/12/30 06:35:31;;;;;;;0.00;0.00;;;14.40;99.90;;;;;;6259010;23;20066;-69
2021/12/30 06:37:58;;;;;;;0.00;0.00;;;14.40;99.90;;;;;;6259861;23;20001;-70
2021/12/30 06:40:23;;;;;;;0.00;0.00;;;14.50;99.90;;;;;;6260753;22;19997;-71
2021/12/30 06:42:49;;;;;;;0.00;0.00;;;14.50;99.90;;;;;;6260874;23;20000;-69
2021/12/30 06:45:15;;;;;;;0.00;0.00;;;14.60;99.90;;;;;;6260229;23;20004;-70
2021/12/30 06:47:41;;;;;;;0.00;0.00;;;14.60;99.90;;;;;;6261161;23;20007;-70
2021/12/30 06:50:08;;;;;;;0.00;0.00;;;14.60;99.90;;;;;;6261464;22;20373;-70
2021/12/30 06:52:33;;;;;;;0.00;0.00;;;14.60;99.90;;;;;;6259933;22;20016;-70
2021/12/30 06:54:59;;;;;;;0.00;0.00;;;14.60;99.90;;;;;;6259014;23;20004;-70
2021/12/30 06:57:25;;;;;;;0.00;0.00;;;14.70;99.90;;;;;;6260280;23;20008;-69
2021/12/30 06:59:51;;;;;;;0.00;0.00;;;14.70;99.90;;;;;;6259856;23;20126;-69
2021/12/30 07:02:17;;;;;;;0.00;0.00;;;14.70;99.90;;;;;;6260940;23;20070;-70
2021/12/30 07:04:42;;;;;;;0.00;0.00;;;14.70;99.90;;;;;;6261019;22;20100;-69
2021/12/30 07:07:09;;;;;;;0.00;0.00;;;14.70;99.90;;;;;;6260353;23;20004;-69
2021/12/30 07:09:35;;;;;;;0.00;0.00;;;14.70;99.90;;;;;;6262124;23;20000;-69
2021/12/30 07:12:01;;;;;;;0.00;0.00;;;14.70;99.90;;;;;;6262757;23;20007;-70
2021/12/30 07:14:28;;;;;;;0.00;0.00;;;14.70;99.90;;;;;;6261332;23;20522;-71
2021/12/30 07:16:54;;;;;;;0.00;0.00;;;14.70;99.90;;;;;;6262557;23;20008;-70
2021/12/30 07:19:20;;;;;;;0.00;0.00;;;14.70;99.90;;;;;;6261968;23;20008;-69
2021/12/30 07:21:46;;;;;;;0.00;0.00;;;14.70;99.90;;;;;;6262286;23;20045;-69
2021/12/30 07:24:12;;;;;;;0.00;0.00;;;14.80;99.90;;;;;;6264373;22;20000;-70
2021/12/30 07:26:38;;;;;;;0.00;0.00;;;14.80;99.90;;;;;;6264490;23;20048;-69
2021/12/30 07:29:04;;;;;;;0.00;0.00;;;14.80;99.90;;;;;;6260453;23;20020;-70
2021/12/30 07:31:30;;;;;;;0.00;0.00;;;14.80;99.90;;;;;;6260566;22;20075;-69
2021/12/30 07:33:56;;;;;;;0.00;0.00;;;14.80;99.90;;;;;;6261561;22;20208;-69
2021/12/30 07:36:22;;;;;;;0.00;0.00;;;14.70;99.90;;;;;;6262724;23;20008;-70
2021/12/30 07:38:48;;;;;;;0.00;0.00;;;14.70;99.90;;;;;;6260953;22;20001;-69
2021/12/30 07:41:14;;;;;;;0.00;0.00;;;14.60;99.90;;;;;;6262572;23;20007;-70
2021/12/30 07:43:41;;;;;;;0.00;0.00;;;14.60;99.90;;;;;;6262982;22;20328;-70
2021/12/30 07:46:09;;;;;;;0.00;0.00;;;14.60;99.90;;;;;;6261768;22;20698;-71
2021/12/30 07:48:35;;;;;;;0.00;0.00;;;14.60;99.90;;;;;;6262049;23;20004;-70
2021/12/30 07:51:01;;;;;;;;;;;14.60;99.90;;;;;;6263379;22;20031;-69
2021/12/30 07:53:27;;;;;;;0.00;0.00;;;14.60;99.90;;;;;;6262013;22;19915;-70
2021/12/30 07:55:53;;;;;;;0.00;0.00;;;14.60;99.90;;;;;;6260450;23;20015;-70
2021/12/30 07:58:18;;;;;;;0.00;0.00;;;14.70;99.90;;;;;;6263731;23;20023;-70
2021/12/30 08:00:44;;;;;;;0.00;0.00;;;14.70;99.90;;;;;;6261690;23;20064;-70
2021/12/30 08:03:10;;;;;;;0.00;0.00;;;14.70;99.90;;;;;;6259439;23;20008;-70
2021/12/30 08:05:36;;;;;;;0.00;0.00;;;14.70;99.90;;;;;;6261195;23;20158;-70
2021/12/30 08:08:02;;;;;;;0.00;0.00;;;14.70;99.90;;;;;;6261580;23;20007;-71
2021/12/30 08:10:28;;;;;;;0.00;0.00;;;14.70;99.90;;;;;;6261924;22;20008;-70
2021/12/30 08:12:54;;;;;;;0.00;0.00;;;14.70;99.90;;;;;;6262122;23;20018;-70
2021/12/30 08:15:21;;;;;;;0.00;0.00;;;14.70;99.90;;;;;;6263299;23;20140;-69
2021/12/30 08:17:50;;;;;;;0.00;0.00;;;14.60;99.90;;;;;;6261784;22;19996;-70
2021/12/30 08:20:17;;;;;;;0.00;0.00;;;14.70;99.90;;;;;;6260764;22;20005;-69
2021/12/30 08:22:43;;;;;;;0.00;0.00;;;14.80;99.90;;;;;;6261152;22;20002;-70
2021/12/30 08:25:10;;;;;;;0.00;0.00;;;14.80;99.90;;;;;;6262671;22;20034;-70
2021/12/30 08:27:36;;;;;;;0.00;0.00;;;14.80;99.90;;;;;;6261271;22;20024;-70
2021/12/30 08:30:04;;;;;;;0.00;0.00;;;14.80;99.90;;;;;;6261280;22;20008;-70
2021/12/30 08:32:30;;;;;;;0.00;0.00;;;14.80;99.90;;;;;;6260532;23;20007;-70
2021/12/30 08:34:55;;;;;;;0.00;0.00;;;14.80;99.90;;;;;;6263651;23;20000;-71
2021/12/30 08:37:21;;;;;;;0.00;0.00;;;14.80;99.90;;;;;;6261157;23;20020;-72
2021/12/30 08:39:47;;;;;;;0.00;0.00;;;14.80;99.90;;;;;;6261200;23;19996;-69
2021/12/30 08:42:25;;;;;;;0.00;0.00;;;14.80;99.90;;;;;;6261603;23;20012;-70
2021/12/30 08:44:52;;;;;;;0.00;0.00;;;14.90;99.90;;;;;;6261827;22;19996;-70
2021/12/30 08:47:18;;;;;;;0.00;0.00;;;14.80;99.90;;;;;;6260608;22;20075;-70
2021/12/30 08:49:47;;;;;;;0.00;0.00;;;14.80;99.90;;;;;;6261727;22;20100;-70
2021/12/30 08:52:14;;;;;;;0.00;0.00;;;14.80;99.90;;;;;;6260181;22;19996;-69
2021/12/30 08:54:40;;;;;;;0.00;0.00;;;14.80;99.90;;;;;;6262364;22;20122;-70
2021/12/30 08:57:06;;;;;;;0.00;0.00;;;14.80;99.90;;;;;;6260126;23;20365;-70
2021/12/30 08:59:32;;;;;;;0.00;0.00;;;14.80;99.90;;;;;;6261314;22;20000;-70
2021/12/30 09:01:58;;;;;;;0.00;0.00;;;14.90;99.90;;;;;;6261869;23;20033;-71
2021/12/30 09:04:23;;;;;;;0.00;0.00;;;14.90;99.90;;;;;;6262964;23;20065;-70
2021/12/30 09:06:49;;;;;;;0.00;0.00;;;14.90;99.90;;;;;;6260715;23;20116;-71
2021/12/30 09:09:15;;;;;;;0.00;0.00;;;14.90;99.90;;;;;;6261121;23;20012;-70
2021/12/30 09:11:41;;;;;;;0.00;0.00;;;14.90;99.90;;;;;;6262077;23;19992;-69
2021/12/30 09:14:06;;;;;;;0.00;0.00;;;15.00;99.90;;;;;;6259672;23;19995;-70
2021/12/30 09:16:32;;;;;;;0.00;0.00;;;15.10;99.90;;;;;;6260017;23;20008;-70
2021/12/30 09:18:58;;;;;;;0.00;0.00;;;15.00;99.90;;;;;;6260873;22;20004;-70
2021/12/30 09:21:24;;;;;;;0.00;0.00;;;15.00;99.90;;;;;;6262036;23;20024;-71
2021/12/30 09:23:50;;;;;;;0.00;0.00;;;15.10;99.90;;;;;;6247667;23;20230;-70
2021/12/30 09:26:16;;;;;;;0.00;0.00;;;15.00;99.90;;;;;;6248863;23;20001;-69
2021/12/30 09:28:41;;;;;;;0.00;0.00;;;15.00;99.90;;;;;;6253199;22;20026;-70
2021/12/30 09:31:07;;;;;;;0.00;0.00;;;15.10;99.90;;;;;;6253417;22;20009;-70
2021/12/30 09:33:33;;;;;;;0.00;0.00;;;15.10;99.90;;;;;;6252393;23;20397;-70
2021/12/30 09:36:01;;;;;;;0.00;0.00;;;15.10;99.90;;;;;;6252375;22;20064;-69
2021/12/30 09:38:28;;;;;;;0.00;0.00;;;15.10;99.90;;;;;;6253356;23;19993;-69
2021/12/30 09:40:54;;;;;;;0.00;0.00;;;15.20;99.90;;;;;;6246866;22;19996;-70
2021/12/30 09:43:21;;;;;;;0.00;0.00;;;15.30;99.90;;;;;;6248602;22;20095;-70
2021/12/30 09:45:47;;;;;;;0.00;0.00;;;15.30;99.90;;;;;;6246681;22;20385;-70
2021/12/30 09:48:14;;;;;;;0.00;0.00;;;15.30;99.90;;;;;;6251395;23;20480;-71
2021/12/30 09:50:47;;;;;;;0.00;0.00;;;15.30;99.90;;;;;;6249048;22;20345;-70
2021/12/30 09:53:13;;;;;;;0.00;0.00;;;15.30;99.90;;;;;;6243498;22;20015;-69
2021/12/30 09:55:39;;;;;;;0.00;0.00;;;15.30;99.90;;;;;;6241690;22;20005;-71
2021/12/30 09:58:06;;;;;;;;;;;15.30;99.90;;;;;;6249529;22;20004;-70
2021/12/30 10:00:33;;;;;;;0.00;0.00;;;15.20;99.90;;;;;;6247566;22;19914;-71
2021/12/30 10:02:59;;;;;;;0.00;0.00;;;15.10;99.90;;;;;;6249272;22;20011;-69
2021/12/30 10:05:28;;;;;;;0.00;0.00;;;15.20;99.90;;;;;;6251277;22;20000;-70
2021/12/30 10:08:16;;;;;;;0.00;0.00;;;15.20;99.90;;;;;;6261252;22;20015;-70
2021/12/30 10:10:43;;;;;;;;;;;15.20;99.90;;;;;;6252162;22;20060;-70
2021/12/30 10:13:20;;;;;;;0.00;0.00;;;15.30;99.90;;;;;;6242698;22;19969;-71
2021/12/30 10:15:48;;;;;;;0.00;0.00;;;15.20;99.90;;;;;;6246938;22;20091;-69
2021/12/30 10:18:14;;;;;;;0.00;0.00;;;15.30;99.90;;;;;;6245100;22;20006;-70
2021/12/30 10:20:42;;;;;;;0.00;0.00;;;15.30;99.90;;;;;;6249756;22;20020;-68
2021/12/30 10:23:14;;;;;;;0.00;0.00;;;15.30;99.90;;;;;;6253019;22;20075;-72
2021/12/30 10:25:43;;;;;;;0.00;0.00;;;15.30;99.90;;;;;;6255704;22;19996;-69
2021/12/30 10:28:21;;;;;;;0.00;0.00;;;15.30;99.90;;;;;;6256292;22;20008;-71
2021/12/30 10:30:48;;;;;;;0.00;0.00;;;15.30;99.90;;;;;;6256883;23;20064;-69
2021/12/30 10:33:19;;;;;;;0.00;0.00;;;15.30;99.90;;;;;;6255171;22;20004;-69
2021/12/30 10:35:46;;;;;;;0.00;0.00;;;15.30;99.90;;;;;;6257172;22;20008;-70
2021/12/30 10:38:12;;;;;;;0.00;0.00;;;15.20;99.90;;;;;;6255368;22;20000;-70
2021/12/30 10:40:46;;;;;;;0.00;0.00;;;15.20;99.90;;;;;;6253696;22;20015;-69
2021/12/30 10:43:37;;;;;;;0.00;0.00;;;15.10;99.90;;;;;;6254928;22;20004;-69
2021/12/30 10:46:13;;;;;;;0.00;0.00;;;15.00;99.90;;;;;;6254449;22;20008;-70
2021/12/30 10:49:04;;;;;;;0.00;0.00;;;15.00;99.90;;;;;;6254420;22;20000;-70
2021/12/30 10:51:39;;;;;;;0.00;0.00;;;15.00;99.90;;;;;;6252554;23;20425;-71
2021/12/30 10:54:13;;;;;;;0.00;0.00;;;14.90;99.90;;;;;;6256508;23;20389;-69
2021/12/30 10:56:47;;;;;;;0.00;0.00;;;14.80;99.90;;;;;;6255582;23;20011;-70
2021/12/30 10:59:19;;;;;;;0.00;0.00;;;14.80;99.90;;;;;;6258725;22;20000;-70
2021/12/30 11:01:55;;;;;;;0.00;0.00;;;14.80;99.90;;;;;;6259584;22;20288;-70
2021/12/30 11:04:30;;;;;;;0.00;0.00;;;14.80;99.90;;;;;;6260496;22;20052;-70
2021/12/30 11:06:55;;;;;;;0.00;0.00;;;14.90;99.90;;;;;;6256293;23;20350;-70
2021/12/30 11:09:22;;;;;;;0.00;0.00;;;14.90;99.90;;;;;;6255990;23;20008;-69
2021/12/30 11:11:53;;;;;;;0.00;0.00;;;15.00;99.90;;;;;;6257365;22;20007;-69
2021/12/30 11:14:24;;;;;;;0.00;0.00;;;15.10;99.90;;;;;;6242883;22;20000;-72
2021/12/30 11:16:59;;;;;;;0.00;0.00;;;15.20;99.90;;;;;;6246061;22;20016;-69
2021/12/30 11:19:26;;;;;;;0.00;0.00;;;15.30;99.90;;;;;;6242321;23;20023;-70
2021/12/30 11:21:53;;;;;;;0.00;0.00;;;15.40;99.90;;;;;;6245162;22;20023;-71
2021/12/30 11:24:20;;;;;;;0.00;0.00;;;15.50;99.90;;;;;;6242812;22;20387;-71
2021/12/30 11:26:47;;;;;;;0.00;0.00;;;15.50;99.90;;;;;;6241030;22;20094;-71
2021/12/30 11:29:13;;;;;;;0.00;0.00;;;15.60;99.90;;;;;;6241395;22;20016;-72
2021/12/30 11:31:38;;;;;;;0.00;0.00;;;15.80;99.90;;;;;;6241101;22;20000;-71
2021/12/30 11:34:05;;;;;;;0.00;0.00;;;16.00;99.90;;;;;;6239084;22;20064;-71
2021/12/30 11:36:33;;;;;;;0.00;0.00;;;16.10;99.90;;;;;;6237112;23;20008;-73
2021/12/30 11:39:03;;;;;;;0.00;0.00;;;16.10;99.90;;;;;;6237877;22;20000;-72
2021/12/30 11:41:29;;;;;;;0.00;0.00;;;16.00;99.90;;;;;;6239713;22;20004;-69
2021/12/30 11:43:56;;;;;;;0.00;0.00;;;15.90;99.90;;;;;;6246460;22;20004;-70
2021/12/30 11:46:38;;;;;;;0.00;0.00;;;16.00;99.90;;;;;;6241634;23;20016;-70
2021/12/30 11:49:05;;;;;;;0.00;0.00;;;16.00;99.90;;;;;;6246005;23;20008;-70
2021/12/30 11:51:54;;;;;;;0.00;0.00;;;15.90;99.90;;;;;;6248906;22;20022;-71
2021/12/30 11:54:40;;;;;;;0.00;0.00;;;16.00;99.90;;;;;;6245098;22;20000;-71
2021/12/30 11:57:31;;;;;;;0.00;0.00;;;16.10;99.90;;;;;;6254122;22;20008;-71
2021/12/30 12:00:00;;;;;;;0.00;0.00;;;16.10;99.90;;;;;;6256004;22;21040;-72
2021/12/30 12:02:34;;;;;;;0.00;0.00;;;16.20;99.90;;;;;;6254226;22;20000;-71
2021/12/30 12:05:41;;;;;;;0.00;0.00;;;16.10;99.90;;;;;;6255606;22;20015;-71
2021/12/30 12:08:10;;;;;;;0.00;0.00;;;16.00;99.90;;;;;;6247923;22;20004;-71
2021/12/30 12:10:36;;;;;;;0.00;0.00;;;16.00;99.90;;;;;;6243065;22;20004;-70
2021/12/30 12:13:30;;;;;;;0.00;0.00;;;16.00;99.90;;;;;;6241878;22;19992;-70
2021/12/30 12:15:56;;;;;;;0.00;0.00;;;16.10;99.90;;;;;;6250645;23;20036;-72
2021/12/30 12:18:23;;;;;;;;;;;16.20;99.90;;;;;;6247020;22;19996;-70
2021/12/30 12:21:00;;;;;;;0.00;0.00;;;16.20;99.90;;;;;;6242134;22;19949;-70
2021/12/30 12:23:32;;;;;;;0.00;0.00;;;16.20;99.90;;;;;;6246369;22;20012;-72
2021/12/30 12:26:18;;;;;;;0.00;0.00;;;16.20;99.90;;;;;;6242638;23;20329;-70
2021/12/30 12:28:44;;;;;;;0.00;0.00;;;16.10;99.90;;;;;;6247177;22;20103;-70
2021/12/30 12:31:11;;;;;;;0.00;0.00;;;16.10;99.90;;;;;;6243376;22;20008;-73
2021/12/30 12:33:40;;;;;;;0.00;0.00;;;16.10;99.90;;;;;;6240249;23;20015;-71
2021/12/30 12:36:16;;;;;;;0.00;0.00;;;16.20;99.90;;;;;;6247178;22;20005;-72
2021/12/30 12:38:50;;;;;;;0.00;0.00;;;16.10;99.90;;;;;;6249086;22;20000;-71
2021/12/30 12:41:20;;;;;;;0.00;0.00;;;16.10;99.90;;;;;;6249961;22;20117;-71
2021/12/30 12:43:50;;;;;;;0.00;0.00;;;16.00;99.90;;;;;;6249237;22;20438;-70
2021/12/30 12:46:16;;;;;;;0.00;0.00;;;16.00;99.90;;;;;;6251497;22;20050;-69
2021/12/30 12:48:42;;;;;;;0.00;0.00;;;16.00;99.90;;;;;;6257021;22;19999;-71
2021/12/30 12:51:26;;;;;;;0.00;0.00;;;16.00;99.90;;;;;;6255648;22;20066;-71
2021/12/30 12:54:01;;;;;;;0.00;0.00;;;16.20;99.90;;;;;;6246469;23;20079;-71
2021/12/30 12:56:38;;;;;;;0.00;0.00;;;16.20;99.90;;;;;;6247421;22;20008;-71
2021/12/30 12:59:08;;;;;;;0.00;0.00;;;16.10;99.90;;;;;;6249451;22;20054;-71